Time;durP1;ratioP1;P1;durP2;ratioP2;P2;SDS_P1;SDS_P2;PMS_P1;PMS_P2;Temp;Humidity;BMP_temperature;BMP_pressure;BME280_temperature;BME280_humidity;BME280_pressure;Samples;Min_cycle;Max_cycle;Signal;HPM_P1;HPM_P2
2023/08/14 00:02:18;;;;;;;5.55;1.80;;;;;;;21.19;69.73;101663.31;5070143;28;20060;-44
2023/08/14 00:04:43;;;;;;;5.38;1.67;;;;;;;21.15;69.99;101661.59;5068938;28;20037;-45
2023/08/14 00:07:09;;;;;;;4.68;1.40;;;;;;;21.16;69.81;101664.28;5071464;28;20628;-43
2023/08/14 00:09:34;;;;;;;5.82;1.95;;;;;;;21.14;69.96;101663.38;5075290;28;20545;-44
2023/08/14 00:12:01;;;;;;;3.75;1.77;;;;;;;21.11;69.96;101657.25;5075505;28;20055;-45
2023/08/14 00:14:26;;;;;;;5.28;1.70;;;;;;;21.10;70.08;101663.47;5070294;28;20067;-46
2023/08/14 00:16:52;;;;;;;4.95;1.88;;;;;;;21.09;70.33;101664.38;5069443;28;20052;-46
2023/08/14 00:19:17;;;;;;;4.22;1.50;;;;;;;21.04;70.41;101657.34;5069225;28;20028;-47
2023/08/14 00:21:42;;;;;;;5.10;1.77;;;;;;;21.08;70.48;101662.63;5068773;28;20032;-47
2023/08/14 00:24:07;;;;;;;3.95;1.60;;;;;;;21.06;70.58;101652.91;5068580;28;20036;-44
2023/08/14 00:26:33;;;;;;;5.72;1.60;;;;;;;21.05;70.21;101653.81;5068744;28;20039;-46
2023/08/14 00:28:58;;;;;;;7.43;1.90;;;;;;;21.01;70.58;101652.13;5068976;28;20112;-45
2023/08/14 00:31:23;;;;;;;4.40;1.67;;;;;;;21.03;70.69;101649.44;5068659;28;20033;-50
2023/08/14 00:33:50;;;;;;;5.45;1.95;;;;;;;21.00;70.81;101654.78;5068528;28;20066;-51
2023/08/14 00:36:15;;;;;;;4.68;1.70;;;;;;;20.99;70.97;101656.56;5069216;28;20190;-44
2023/08/14 00:38:41;;;;;;;5.28;1.73;;;;;;;20.97;71.12;101655.72;5068665;28;20123;-52
2023/08/14 00:41:06;;;;;;;4.07;1.80;;;;;;;20.97;70.78;101650.44;5069044;28;20113;-46
2023/08/14 00:43:32;;;;;;;5.00;1.70;;;;;;;20.96;70.93;101647.78;5067986;28;20087;-48
2023/08/14 00:46:00;;;;;;;4.47;1.90;;;;;;;20.95;70.92;101641.63;5069321;28;20033;-47
2023/08/14 00:48:26;;;;;;;6.60;2.08;;;;;;;20.95;71.23;101643.38;5068901;28;20509;-51
2023/08/14 00:50:55;;;;;;;5.50;2.10;;;;;;;20.93;71.62;101639.88;5068761;28;20090;-50
2023/08/14 00:53:24;;;;;;;4.93;1.90;;;;;;;20.92;71.75;101636.34;5068566;28;20035;-44
2023/08/14 00:55:49;;;;;;;6.78;2.30;;;;;;;20.94;71.62;101636.34;5068799;28;20043;-45
2023/08/14 00:58:15;;;;;;;4.85;1.80;;;;;;;20.93;71.35;101631.94;5069098;28;20028;-42
2023/08/14 01:00:42;;;;;;;7.00;1.98;;;;;;;20.89;71.54;101631.13;5067416;28;20024;-42
2023/08/14 01:03:08;;;;;;;4.63;1.88;;;;;;;20.87;71.80;101627.59;5068765;28;20109;-49
2023/08/14 01:05:33;;;;;;;5.82;1.90;;;;;;;20.87;72.08;101627.59;5068347;28;20032;-43
2023/08/14 01:07:59;;;;;;;8.07;2.00;;;;;;;20.88;71.64;101631.13;5068854;28;20040;-47
2023/08/14 01:10:38;;;;;;;5.80;2.00;;;;;;;20.85;71.79;101634.72;5067496;28;20128;-50
2023/08/14 01:13:09;;;;;;;7.28;2.00;;;;;;;20.85;72.05;101632.09;5072117;28;20033;-44
2023/08/14 01:15:41;;;;;;;7.07;2.10;;;;;;;20.82;72.36;101632.13;5072065;28;20516;-52
2023/08/14 01:18:09;;;;;;;5.43;2.10;;;;;;;20.77;72.63;101625.16;5072359;28;20046;-49
2023/08/14 01:20:37;;;;;;;5.35;1.90;;;;;;;20.80;72.69;101622.47;5071962;28;20035;-43
2023/08/14 01:23:12;;;;;;;6.93;2.00;;;;;;;20.75;73.09;101624.28;5071579;28;20591;-47
2023/08/14 01:25:38;;;;;;;6.35;2.15;;;;;;;20.78;73.29;101624.25;5071620;28;20183;-49
2023/08/14 01:28:05;;;;;;;7.65;2.08;;;;;;;20.79;73.10;101618.06;5072170;28;20051;-48
2023/08/14 01:30:31;;;;;;;5.53;1.90;;;;;;;20.82;73.00;101613.56;5071620;28;20041;-46
2023/08/14 01:32:56;;;;;;;4.15;1.77;;;;;;;20.83;72.50;101607.38;5072032;28;20033;-44
2023/08/14 01:35:30;;;;;;;5.88;2.08;;;;;;;20.84;72.57;101602.94;5071813;28;20028;-45
2023/08/14 01:38:18;;;;;;;4.82;1.95;;;;;;;20.82;72.45;101602.97;5072221;28;20759;-44
2023/08/14 01:40:49;;;;;;;5.90;2.10;;;;;;;20.76;72.36;101605.72;5071625;28;20403;-43
2023/08/14 01:43:22;;;;;;;4.90;1.90;;;;;;;20.77;72.30;101601.28;5069305;28;20037;-43
2023/08/14 01:45:48;;;;;;;5.40;1.87;;;;;;;20.74;72.52;101604.88;5071907;28;20062;-44
2023/08/14 01:48:14;;;;;;;3.88;1.80;;;;;;;20.67;72.56;101593.50;5070805;28;20951;-46
2023/08/14 01:50:40;;;;;;;5.57;1.90;;;;;;;20.68;72.49;101589.06;5070103;28;20128;-44
2023/08/14 01:53:06;;;;;;;6.68;1.90;;;;;;;20.67;72.31;101589.13;5071613;28;20035;-43
2023/08/14 01:55:32;;;;;;;4.75;1.70;;;;;;;20.63;72.36;101585.63;5071307;28;20036;-48
2023/08/14 01:57:57;;;;;;;6.88;2.10;;;;;;;20.59;72.74;101574.22;5070516;28;20048;-47
2023/08/14 02:00:23;;;;;;;5.60;2.20;;;;;;;20.59;72.66;101581.28;5071518;28;20032;-48
2023/08/14 02:02:48;;;;;;;5.00;2.10;;;;;;;20.56;72.84;101578.66;5071750;28;20032;-47
2023/08/14 02:05:13;;;;;;;6.80;2.40;;;;;;;20.55;72.66;101574.31;5071104;28;20036;-46
2023/08/14 02:07:39;;;;;;;4.82;1.90;;;;;;;20.58;72.53;101575.13;5071349;28;20533;-46
2023/08/14 02:10:05;;;;;;;6.20;2.10;;;;;;;20.53;72.64;101570.78;5068873;28;20056;-43
2023/08/14 02:12:30;;;;;;;6.18;2.22;;;;;;;20.51;72.73;101570.81;5071025;28;20031;-45
2023/08/14 02:14:57;;;;;;;5.80;2.10;;;;;;;20.46;72.67;101570.00;5071201;28;20486;-46
2023/08/14 02:17:22;;;;;;;7.57;2.10;;;;;;;20.49;72.79;101569.09;5071538;28;20487;-46
2023/08/14 02:19:48;;;;;;;3.80;1.80;;;;;;;20.49;72.69;101567.31;5062668;28;20074;-45
2023/08/14 02:22:13;;;;;;;6.72;2.00;;;;;;;20.49;72.54;101567.31;5070260;28;20165;-44
2023/08/14 02:24:39;;;;;;;4.70;1.90;;;;;;;20.45;72.63;101565.63;5070115;28;20056;-45
2023/08/14 02:27:04;;;;;;;4.18;2.00;;;;;;;20.43;72.51;101559.44;5071514;28;20410;-48
2023/08/14 02:29:30;;;;;;;6.78;2.08;;;;;;;20.41;72.66;101560.41;5071080;28;20127;-45
2023/08/14 02:31:55;;;;;;;5.15;2.00;;;;;;;20.38;72.70;101563.97;5071889;28;20040;-44
2023/08/14 02:34:49;;;;;;;6.47;2.00;;;;;;;20.36;72.69;101552.53;5070955;28;20031;-49
2023/08/14 02:37:16;;;;;;;4.72;2.10;;;;;;;20.36;72.71;101564.91;5071568;28;20150;-49
2023/08/14 02:39:43;;;;;;;4.82;2.00;;;;;;;20.33;72.74;101557.88;5070885;28;20033;-44
2023/08/14 02:42:08;;;;;;;7.18;2.00;;;;;;;20.30;72.61;101555.25;5072122;28;20410;-43
2023/08/14 02:44:34;;;;;;;5.65;2.10;;;;;;;20.30;72.66;101555.25;5072412;28;20045;-44
2023/08/14 02:47:01;;;;;;;5.93;2.03;;;;;;;20.31;72.48;101561.41;5074151;28;20058;-44
2023/08/14 02:49:26;;;;;;;4.05;1.75;;;;;;;20.30;72.31;101560.53;5073159;28;20043;-45
2023/08/14 02:51:52;;;;;;;5.97;2.00;;;;;;;20.31;72.32;101556.13;5072895;28;20041;-48
2023/08/14 02:54:17;;;;;;;4.03;1.75;;;;;;;20.32;72.26;101556.13;5078276;28;20039;-46
2023/08/14 02:56:42;;;;;;;3.88;1.80;;;;;;;20.29;72.24;101557.91;5086102;28;20029;-43
2023/08/14 02:59:08;;;;;;;5.30;1.77;;;;;;;20.29;71.99;101552.63;5079155;28;20044;-44
2023/08/14 03:01:33;;;;;;;4.65;1.80;;;;;;;20.29;71.96;101568.50;5071090;28;20024;-46
2023/08/14 03:03:59;;;;;;;4.38;1.83;;;;;;;20.24;71.95;101566.81;5070469;28;20026;-46
2023/08/14 03:06:24;;;;;;;3.53;1.75;;;;;;;20.22;72.09;101568.59;5070991;28;20563;-48
2023/08/14 03:08:50;;;;;;;3.08;1.60;;;;;;;20.24;72.01;101569.47;5071036;28;20039;-44
2023/08/14 03:11:16;;;;;;;4.85;1.95;;;;;;;20.20;72.15;101577.44;5070452;28;20043;-46
2023/08/14 03:13:41;;;;;;;4.63;1.88;;;;;;;20.21;71.88;101566.84;5069332;28;20025;-47
2023/08/14 03:16:07;;;;;;;3.92;1.80;;;;;;;20.20;72.07;101566.84;5070799;28;20102;-43
2023/08/14 03:18:33;;;;;;;3.47;1.55;;;;;;;20.19;72.13;101563.34;5070746;28;20037;-46
2023/08/14 03:20:58;;;;;;;5.65;1.70;;;;;;;20.19;72.06;101571.28;5075713;28;20028;-44
2023/08/14 03:23:23;;;;;;;4.15;1.58;;;;;;;20.18;72.10;101560.75;5073928;28;20035;-46
2023/08/14 03:25:48;;;;;;;4.50;1.88;;;;;;;20.13;72.25;101557.25;5069997;28;20032;-44
2023/08/14 03:28:14;;;;;;;4.05;1.63;;;;;;;20.19;72.25;101557.16;5070312;28;20515;-44
2023/08/14 03:30:43;;;;;;;3.97;1.83;;;;;;;20.19;72.00;101558.03;5069430;28;20120;-48
2023/08/14 03:33:09;;;;;;;3.63;1.67;;;;;;;20.21;71.88;101561.56;5069323;28;20043;-44
2023/08/14 03:35:34;;;;;;;3.70;1.55;;;;;;;20.22;71.83;101558.00;5051157;28;20024;-44
2023/08/14 03:38:00;;;;;;;4.35;1.65;;;;;;;20.22;71.89;101557.13;5069894;28;20043;-45
2023/08/14 03:40:25;;;;;;;5.18;1.75;;;;;;;20.17;71.88;101557.22;5069231;28;20522;-45
2023/08/14 03:42:51;;;;;;;4.18;1.65;;;;;;;20.17;71.72;101561.63;5069870;28;20037;-46
2023/08/14 03:45:17;;;;;;;4.43;1.80;;;;;;;20.14;71.81;101557.25;5069235;28;20044;-44
2023/08/14 03:47:42;;;;;;;2.85;1.50;;;;;;;20.18;71.62;101561.63;5069432;28;20044;-50
2023/08/14 03:50:08;;;;;;;6.13;1.60;;;;;;;20.16;72.03;101555.47;5069537;28;20052;-46
2023/08/14 03:52:33;;;;;;;3.38;1.50;;;;;;;20.19;71.79;101560.69;5069223;28;20036;-43
2023/08/14 03:54:59;;;;;;;3.58;1.60;;;;;;;20.23;71.51;101564.19;5068701;28;20030;-46
2023/08/14 03:57:24;;;;;;;3.33;1.77;;;;;;;20.19;71.82;101558.03;5069351;28;20059;-43
2023/08/14 03:59:49;;;;;;;4.82;1.50;;;;;;;20.22;71.42;101560.66;5069947;28;20116;-43
2023/08/14 04:02:15;;;;;;;3.45;1.70;;;;;;;20.24;71.47;101553.56;5068989;28;20056;-44
2023/08/14 04:04:40;;;;;;;4.78;1.50;;;;;;;20.25;71.33;101557.06;5068592;28;20032;-43
2023/08/14 04:07:05;;;;;;;3.30;1.50;;;;;;;20.25;71.51;101557.06;5069670;28;20028;-44
2023/08/14 04:09:31;;;;;;;5.43;1.70;;;;;;;20.26;71.27;101559.69;5070165;28;20055;-50
2023/08/14 04:11:56;;;;;;;5.07;1.60;;;;;;;20.24;71.16;101550.94;5071042;28;20111;-43
2023/08/14 04:14:23;;;;;;;3.25;1.58;;;;;;;20.26;71.17;101549.09;5069710;28;20027;-48
2023/08/14 04:16:48;;;;;;;3.00;1.52;;;;;;;20.27;71.10;101555.28;5069374;28;20128;-43
2023/08/14 04:19:16;;;;;;;4.75;1.60;;;;;;;20.18;71.33;101553.66;5071035;28;20064;-45
2023/08/14 04:21:42;;;;;;;3.70;1.45;;;;;;;20.30;70.88;101551.72;5070318;28;20495;-43
2023/08/14 04:24:08;;;;;;;3.70;1.75;;;;;;;20.22;70.93;101555.38;5070655;28;20051;-45
2023/08/14 04:26:33;;;;;;;3.22;1.52;;;;;;;20.26;70.79;101554.41;5070597;28;20101;-44
2023/08/14 04:28:59;;;;;;;3.35;1.70;;;;;;;20.38;70.41;101550.72;5069483;28;20494;-49
2023/08/14 04:31:24;;;;;;;4.50;1.55;;;;;;;20.42;70.03;101552.44;5069027;28;20032;-48
2023/08/14 04:33:49;;;;;;;3.15;1.52;;;;;;;20.45;69.93;101554.13;5068927;28;20135;-44
2023/08/14 04:36:15;;;;;;;5.55;1.77;;;;;;;20.41;70.03;101549.81;5069565;28;20067;-44
2023/08/14 04:38:40;;;;;;;3.53;1.58;;;;;;;20.43;70.01;101546.22;5068577;28;20120;-49
2023/08/14 04:41:05;;;;;;;5.50;1.80;;;;;;;20.45;70.43;101541.78;5068017;28;20065;-42
2023/08/14 04:43:31;;;;;;;3.28;1.70;;;;;;;20.50;69.94;101541.69;5068253;28;20078;-45
2023/08/14 04:46:09;;;;;;;5.38;1.80;;;;;;;20.39;70.23;101546.28;5070414;28;20060;-47
2023/08/14 04:48:34;;;;;;;4.90;2.00;;;;;;;20.54;69.58;101539.00;5072705;28;20044;-44
2023/08/14 04:50:59;;;;;;;3.45;1.55;;;;;;;20.47;69.84;101533.81;5072632;28;20040;-43
2023/08/14 04:53:25;;;;;;;5.63;1.90;;;;;;;20.57;69.27;101530.09;5072211;28;20060;-42
2023/08/14 04:55:51;;;;;;;3.80;1.70;;;;;;;20.59;69.23;101536.25;5072943;28;20028;-44
2023/08/14 04:58:16;;;;;;;4.65;1.75;;;;;;;20.68;68.77;101536.06;5072912;28;20047;-42
2023/08/14 05:00:41;;;;;;;2.60;1.50;;;;;;;20.66;68.79;101529.94;5072304;28;20048;-44
2023/08/14 05:03:07;;;;;;;3.42;1.77;;;;;;;20.63;68.62;101529.97;5072456;28;20028;-43
2023/08/14 05:05:32;;;;;;;3.50;1.90;;;;;;;20.62;68.57;101530.88;5072200;28;20036;-44
2023/08/14 05:07:57;;;;;;;3.60;1.80;;;;;;;20.69;68.21;101527.22;5072793;28;20032;-47
2023/08/14 05:10:23;;;;;;;4.57;1.80;;;;;;;20.74;67.96;101525.38;5072026;28;20094;-46
2023/08/14 05:12:48;;;;;;;4.40;1.73;;;;;;;20.83;67.86;101519.03;5072798;28;20382;-44
2023/08/14 05:15:14;;;;;;;4.20;1.80;;;;;;;20.87;67.66;101524.25;5070663;28;20028;-42
2023/08/14 05:17:39;;;;;;;3.00;1.73;;;;;;;20.89;67.65;101525.09;5072229;28;20055;-42
2023/08/14 05:20:05;;;;;;;4.35;1.90;;;;;;;20.93;67.37;101521.47;5072444;28;20340;-45
2023/08/14 05:22:31;;;;;;;4.53;1.88;;;;;;;20.93;67.32;101529.44;5072295;28;20032;-46
2023/08/14 05:24:56;;;;;;;4.97;2.25;;;;;;;20.91;66.99;101533.91;5071670;28;20490;-46
2023/08/14 05:27:21;;;;;;;5.35;2.20;;;;;;;20.85;66.66;101533.16;5072830;28;20108;-47
2023/08/14 05:29:47;;;;;;;3.63;1.85;;;;;;;20.98;66.38;101532.84;5071868;28;20096;-46
2023/08/14 05:32:13;;;;;;;3.15;1.90;;;;;;;21.02;66.40;101537.22;5072985;28;20524;-48
2023/08/14 05:34:38;;;;;;;5.68;2.10;;;;;;;21.08;66.11;101536.22;5071503;28;20097;-42
2023/08/14 05:37:03;;;;;;;9.13;2.40;;;;;;;21.12;65.93;101534.38;5072887;28;20036;-44
2023/08/14 05:39:29;;;;;;;5.78;2.00;;;;;;;21.21;66.12;101537.78;5074010;28;20033;-43
2023/08/14 05:41:54;;;;;;;5.53;2.00;;;;;;;21.33;65.63;101534.00;5077439;28;20036;-44
2023/08/14 05:44:19;;;;;;;4.10;2.03;;;;;;;21.42;65.21;101529.34;5076579;28;20029;-46
2023/08/14 05:46:45;;;;;;;5.03;2.40;;;;;;;21.50;64.83;101530.97;5071772;28;20046;-43
2023/08/14 05:49:10;;;;;;;6.65;2.50;;;;;;;21.54;64.47;101530.88;5071572;28;20529;-44
2023/08/14 05:51:35;;;;;;;6.47;2.88;;;;;;;21.61;63.93;101529.84;5071216;28;20427;-47
2023/08/14 05:54:01;;;;;;;4.10;2.40;;;;;;;21.77;63.48;101525.94;5071031;28;20035;-44
2023/08/14 05:56:26;;;;;;;5.20;2.58;;;;;;;21.86;63.05;101538.13;5071353;28;20032;-47
2023/08/14 05:58:51;;;;;;;5.07;2.78;;;;;;;21.95;62.89;101526.44;5071904;28;20060;-44
2023/08/14 06:01:17;;;;;;;7.32;2.95;;;;;;;21.96;61.94;101530.84;5071962;28;20028;-43
2023/08/14 06:03:43;;;;;;;6.60;2.90;;;;;;;22.03;61.81;101541.31;5075748;28;20071;-49
2023/08/14 06:06:08;;;;;;;4.38;2.70;;;;;;;22.07;61.99;101535.03;5077051;28;20043;-46
2023/08/14 06:08:34;;;;;;;4.18;2.83;;;;;;;22.09;61.70;101535.84;5075242;28;20525;-44
2023/08/14 06:11:01;;;;;;;5.60;2.80;;;;;;;22.29;61.57;101532.72;5071780;28;20035;-44
2023/08/14 06:13:27;;;;;;;6.03;2.78;;;;;;;22.32;61.06;101535.31;5070768;28;20502;-50
2023/08/14 06:15:52;;;;;;;6.47;3.00;;;;;;;22.32;61.10;101531.78;5071593;28;20154;-44
2023/08/14 06:18:17;;;;;;;5.57;2.80;;;;;;;22.46;60.84;101530.50;5071301;28;20052;-47
2023/08/14 06:20:43;;;;;;;6.68;3.10;;;;;;;22.53;61.11;101531.25;5070957;28;20044;-47
2023/08/14 06:23:08;;;;;;;4.30;2.88;;;;;;;22.71;61.15;101530.75;5070650;28;20107;-44
2023/08/14 06:25:34;;;;;;;6.65;2.85;;;;;;;22.89;60.37;101524.97;5070598;28;20029;-45
2023/08/14 06:27:59;;;;;;;6.28;3.05;;;;;;;23.11;59.96;101527.06;5069703;28;20028;-47
2023/08/14 06:30:25;;;;;;;6.53;2.83;;;;;;;23.25;59.58;101536.38;5070800;28;20507;-43
2023/08/14 06:32:50;;;;;;;6.38;3.15;;;;;;;23.41;59.68;101534.16;5071116;28;20575;-44
2023/08/14 06:35:16;;;;;;;6.57;2.97;;;;;;;23.72;58.52;101540.38;5070542;28;20036;-50
2023/08/14 06:37:41;;;;;;;7.35;3.08;;;;;;;24.05;56.96;101543.75;5070764;28;20103;-45
2023/08/14 06:40:08;;;;;;;8.82;3.33;;;;;;;24.17;55.56;101534.50;5070981;28;20033;-45
2023/08/14 06:42:33;;;;;;;10.20;3.78;;;;;;;24.07;54.76;101546.38;5070583;28;20020;-49
2023/08/14 06:44:58;;;;;;;9.32;3.83;;;;;;;24.12;54.68;101544.44;5070582;28;20490;-48
2023/08/14 06:47:24;;;;;;;9.38;4.05;;;;;;;24.39;54.41;101546.25;5070569;28;20032;-46
2023/08/14 06:49:49;;;;;;;8.63;3.85;;;;;;;24.31;54.28;101548.28;5070474;28;20048;-45
2023/08/14 06:52:14;;;;;;;11.85;4.30;;;;;;;24.65;53.90;101558.69;5070768;28;20041;-49
2023/08/14 06:54:40;;;;;;;8.75;3.75;;;;;;;25.26;51.64;101553.88;5069500;28;20032;-44
2023/08/14 06:57:05;;;;;;;8.63;4.00;;;;;;;26.22;49.19;101554.59;5070288;28;20045;-46
2023/08/14 06:59:31;;;;;;;9.40;4.00;;;;;;;26.71;46.90;101555.25;5069530;28;20031;-47
2023/08/14 07:01:57;;;;;;;8.15;3.65;;;;;;;27.45;45.21;101540.34;5070826;28;20040;-46
2023/08/14 07:04:22;;;;;;;7.82;3.63;;;;;;;27.71;43.69;101540.03;5070448;28;20059;-47
2023/08/14 07:06:47;;;;;;;8.27;3.55;;;;;;;27.49;43.53;101533.06;5071144;28;20040;-44
2023/08/14 07:09:16;;;;;;;8.00;3.50;;;;;;;28.64;42.03;101543.53;5070341;28;20518;-46
2023/08/14 07:11:41;;;;;;;6.82;3.15;;;;;;;28.69;41.29;101551.34;5069559;28;20032;-48
2023/08/14 07:14:07;;;;;;;8.50;3.40;;;;;;;28.22;42.04;101549.22;5070184;28;20102;-45
2023/08/14 07:16:33;;;;;;;7.82;3.17;;;;;;;28.08;41.79;101549.00;5070914;28;20032;-48
2023/08/14 07:18:58;;;;;;;7.40;3.00;;;;;;;27.17;43.85;101551.47;5070370;28;20044;-46
2023/08/14 07:21:23;;;;;;;6.70;3.17;;;;;;;26.71;44.90;101562.41;5069453;28;20059;-45
2023/08/14 07:23:49;;;;;;;6.50;2.75;;;;;;;25.94;47.36;101567.31;5069365;28;20036;-45
2023/08/14 07:26:15;;;;;;;7.53;2.60;;;;;;;25.90;47.75;101568.38;5069997;28;20028;-49
2023/08/14 07:28:41;;;;;;;6.53;2.60;;;;;;;25.50;49.48;101557.44;5069541;28;20036;-47
2023/08/14 07:31:09;;;;;;;7.03;2.40;;;;;;;25.91;48.11;101562.09;5069807;28;20028;-45
2023/08/14 07:33:34;;;;;;;6.93;2.60;;;;;;;26.68;45.40;101555.38;5068813;28;20515;-51
2023/08/14 07:36:01;;;;;;;6.60;2.30;;;;;;;27.44;42.31;101558.25;5069728;28;20025;-45
2023/08/14 07:38:26;;;;;;;5.82;1.80;;;;;;;28.97;40.25;101547.16;5069468;28;20497;-44
2023/08/14 07:40:55;;;;;;;5.30;2.17;;;;;;;29.73;38.19;101534.97;5064968;28;20064;-44
2023/08/14 07:43:22;;;;;;;3.45;1.58;;;;;;;31.28;35.49;101506.94;5069450;28;20028;-46
2023/08/14 07:45:47;;;;;;;7.70;1.80;;;;;;;32.35;32.57;101511.63;5069083;28;20055;-50
2023/08/14 07:48:13;;;;;;;5.32;1.90;;;;;;;31.43;33.27;101518.56;5069332;28;20052;-47
2023/08/14 07:50:38;;;;;;;4.75;1.58;;;;;;;33.20;30.79;101527.34;5068792;28;20131;-48
2023/08/14 07:53:04;;;;;;;6.22;1.92;;;;;;;33.80;28.98;101526.59;5068681;28;20036;-50
2023/08/14 07:55:29;;;;;;;3.40;1.70;;;;;;;33.69;29.10;101521.09;5068648;28;20036;-52
2023/08/14 07:57:55;;;;;;;3.85;1.50;;;;;;;33.65;28.79;101512.34;5068138;28;20024;-49
2023/08/14 08:00:20;;;;;;;4.82;1.80;;;;;;;32.99;30.83;101510.78;5068234;28;20033;-46
2023/08/14 08:02:46;;;;;;;6.38;1.60;;;;;;;33.86;28.84;101501.81;5055950;28;20025;-49
2023/08/14 08:05:11;;;;;;;4.63;1.60;;;;;;;34.19;28.38;101506.53;5048314;28;20052;-51
2023/08/14 08:07:36;;;;;;;3.63;1.40;;;;;;;33.09;29.84;101513.69;5048776;28;20395;-48
2023/08/14 08:10:02;;;;;;;3.30;1.50;;;;;;;32.59;31.56;101509.97;5049157;28;20098;-46
2023/08/14 08:12:28;;;;;;;3.80;1.38;;;;;;;32.75;31.26;101512.50;5049321;28;20112;-45
2023/08/14 08:14:53;;;;;;;4.53;1.35;;;;;;;32.93;30.72;101510.38;5049720;28;20037;-45
2023/08/14 08:17:18;;;;;;;3.05;1.40;;;;;;;31.84;32.26;101503.31;5049954;28;20033;-50
2023/08/14 08:19:46;;;;;;;5.38;1.60;;;;;;;31.01;33.04;101509.50;5048898;28;20037;-46
2023/08/14 08:22:12;;;;;;;3.30;1.70;;;;;;;30.08;36.00;101510.63;5053561;28;20055;-45
2023/08/14 08:24:37;;;;;;;4.72;1.48;;;;;;;29.61;38.05;101505.25;5053728;28;20562;-46
2023/08/14 08:27:03;;;;;;;5.32;1.50;;;;;;;28.98;36.50;101497.91;5056055;28;20120;-43
2023/08/14 08:29:28;;;;;;;2.83;1.40;;;;;;;28.95;37.43;101502.56;5053474;28;20067;-46
2023/08/14 08:31:53;;;;;;;3.33;1.40;;;;;;;28.48;38.28;101502.34;5053971;28;20120;-47
2023/08/14 08:34:19;;;;;;;4.25;1.33;;;;;;;27.65;40.14;101510.00;5053327;28;20040;-44
2023/08/14 08:36:44;;;;;;;3.20;1.40;;;;;;;27.67;40.51;101514.34;5054565;28;20055;-45
2023/08/14 08:39:09;;;;;;;2.88;1.40;;;;;;;27.40;41.50;101512.91;5054093;28;20517;-49
2023/08/14 08:41:38;;;;;;;3.33;1.50;;;;;;;27.44;41.58;101512.72;5064554;28;20032;-45
2023/08/14 08:44:04;;;;;;;3.22;1.40;;;;;;;27.61;41.97;101508.41;5070908;28;20039;-47
2023/08/14 08:46:34;;;;;;;4.47;1.73;;;;;;;27.46;41.92;101516.19;5072928;28;20028;-48
2023/08/14 08:49:02;;;;;;;4.63;1.80;;;;;;;26.93;42.70;101512.41;5072489;28;20039;-50
2023/08/14 08:51:29;;;;;;;4.43;1.85;;;;;;;27.00;43.37;101516.56;5072148;28;20039;-47
2023/08/14 08:53:55;;;;;;;6.40;2.00;;;;;;;26.71;44.45;101520.50;5072627;28;20036;-47
2023/08/14 08:56:21;;;;;;;4.25;1.60;;;;;;;27.16;43.64;101520.28;5072685;28;20119;-49
2023/08/14 08:58:47;;;;;;;5.38;1.85;;;;;;;27.39;42.36;101517.41;5071918;28;20032;-50
2023/08/14 09:01:13;;;;;;;3.55;1.80;;;;;;;27.31;43.58;101524.94;5072139;28;20032;-47
2023/08/14 09:03:38;;;;;;;4.68;1.88;;;;;;;27.41;43.25;101522.69;5071334;28;20033;-48
2023/08/14 09:06:03;;;;;;;5.78;2.00;;;;;;;27.36;42.85;101512.22;5072365;28;20119;-51
2023/08/14 09:08:29;;;;;;;3.85;2.20;;;;;;;27.45;43.14;101514.44;5071710;28;20063;-49
2023/08/14 09:10:54;;;;;;;5.43;2.17;;;;;;;27.14;44.90;101511.44;5072508;28;20061;-44
2023/08/14 09:13:20;;;;;;;4.30;2.00;;;;;;;27.52;42.73;101509.72;5071740;28;20383;-48
2023/08/14 09:15:46;;;;;;;4.28;1.80;;;;;;;27.45;43.17;101498.38;5071341;28;20032;-50
2023/08/14 09:18:11;;;;;;;8.63;2.30;;;;;;;27.59;43.79;101496.91;5072253;28;20028;-51
2023/08/14 09:20:40;;;;;;;4.82;1.80;;;;;;;27.39;44.01;101485.28;5071515;28;20032;-46
2023/08/14 09:23:10;;;;;;;4.43;2.05;;;;;;;27.64;43.64;101489.50;5071485;28;20394;-45
2023/08/14 09:25:36;;;;;;;4.55;2.00;;;;;;;28.04;42.69;101486.63;5071555;28;20098;-47
2023/08/14 09:28:01;;;;;;;6.03;1.92;;;;;;;28.22;43.17;101484.88;5071909;28;20040;-47
2023/08/14 09:30:27;;;;;;;3.10;1.70;;;;;;;27.93;44.61;101483.63;5071598;28;20032;-45
2023/08/14 09:32:55;;;;;;;5.35;2.00;;;;;;;28.29;42.76;101486.31;5071485;28;20028;-46
2023/08/14 09:35:20;;;;;;;4.35;1.90;;;;;;;28.21;42.55;101486.69;5071219;28;20086;-48
2023/08/14 09:37:49;;;;;;;7.20;1.90;;;;;;;28.46;41.50;101490.81;5069982;28;20119;-48
2023/08/14 09:40:16;;;;;;;4.38;1.90;;;;;;;28.17;41.72;101489.63;5071374;28;20037;-46
2023/08/14 09:42:43;;;;;;;7.22;1.95;;;;;;;27.77;42.85;101485.28;5071186;28;20035;-45
2023/08/14 09:45:08;;;;;;;6.72;1.95;;;;;;;27.61;44.21;101476.28;5070739;28;20044;-44
2023/08/14 09:47:34;;;;;;;4.65;1.60;;;;;;;27.93;44.27;101472.91;5071037;28;20441;-48
2023/08/14 09:50:00;;;;;;;5.63;2.00;;;;;;;28.25;43.71;101472.19;5071598;28;20041;-46
2023/08/14 09:52:25;;;;;;;6.03;1.90;;;;;;;28.20;43.04;101463.50;5071130;28;20059;-51
2023/08/14 09:54:51;;;;;;;4.47;1.85;;;;;;;28.39;43.38;101460.75;5071451;28;20111;-46
2023/08/14 09:57:17;;;;;;;4.40;1.80;;;;;;;28.33;42.33;101454.84;5072368;28;20062;-47
2023/08/14 09:59:43;;;;;;;5.70;2.03;;;;;;;27.30;43.95;101458.06;5071486;28;20036;-48
2023/08/14 10:02:12;;;;;;;6.82;1.80;;;;;;;28.09;42.78;101468.50;5071403;28;20371;-46
2023/08/14 10:04:39;;;;;;;5.10;1.92;;;;;;;27.94;42.05;101455.84;5069984;28;20032;-48
2023/08/14 10:07:06;;;;;;;4.32;1.85;;;;;;;28.18;42.68;101456.47;5071506;28;20036;-46
2023/08/14 10:09:34;;;;;;;4.53;1.50;;;;;;;28.32;40.96;101461.13;5070560;28;20064;-50
2023/08/14 10:12:06;;;;;;;3.65;1.73;;;;;;;27.21;43.03;101462.03;5070991;28;20036;-44
2023/08/14 10:14:35;;;;;;;5.10;1.80;;;;;;;27.84;42.33;101452.78;5070337;28;20560;-46
2023/08/14 10:17:01;;;;;;;7.03;2.15;;;;;;;28.22;42.14;101450.91;5071004;28;20029;-50
2023/08/14 10:19:28;;;;;;;5.47;1.80;;;;;;;28.70;41.60;101446.59;5070332;28;20082;-45
2023/08/14 10:21:54;;;;;;;8.18;2.15;;;;;;;28.89;43.29;101441.16;5071000;28;20085;-44
2023/08/14 10:24:21;;;;;;;4.50;2.00;;;;;;;28.99;41.58;101437.03;5070746;28;20436;-45
2023/08/14 10:26:47;;;;;;;4.55;1.80;;;;;;;29.35;40.63;101443.09;5070205;28;20032;-47
2023/08/14 10:29:13;;;;;;;6.13;1.92;;;;;;;28.57;41.94;101434.78;5070426;28;20082;-45
2023/08/14 10:31:39;;;;;;;7.45;2.08;;;;;;;28.75;42.03;101438.34;5069208;28;20207;-45
2023/08/14 10:34:04;;;;;;;4.68;1.70;;;;;;;28.73;40.41;101440.22;5069888;28;20048;-46
2023/08/14 10:36:30;;;;;;;3.80;1.70;;;;;;;28.28;40.44;101443.47;5070018;28;20457;-42
2023/08/14 10:39:05;;;;;;;5.20;1.58;;;;;;;28.03;39.03;101441.13;5070952;28;20072;-49
2023/08/14 10:41:34;;;;;;;3.45;1.60;;;;;;;28.81;38.46;101438.88;5069930;28;20024;-45
2023/08/14 10:44:07;;;;;;;3.80;1.55;;;;;;;29.24;37.50;101432.03;5066881;28;20036;-49
2023/08/14 10:46:42;;;;;;;5.28;1.83;;;;;;;29.17;37.50;101444.06;5069994;28;20029;-50
2023/08/14 10:49:11;;;;;;;5.40;1.83;;;;;;;28.72;39.73;101438.47;5070615;28;20502;-46
2023/08/14 10:51:40;;;;;;;5.68;1.90;;;;;;;28.73;39.42;101443.75;5069635;28;20025;-45
2023/08/14 10:54:10;;;;;;;5.93;1.70;;;;;;;29.44;38.63;101447.09;5069659;28;20124;-46
2023/08/14 10:56:45;;;;;;;5.45;1.67;;;;;;;29.40;38.92;101435.63;5070295;28;20032;-47
2023/08/14 10:59:26;;;;;;;7.47;1.70;;;;;;;29.28;38.08;101433.59;5069912;28;20123;-48
2023/08/14 11:02:10;;;;;;;4.32;1.58;;;;;;;29.76;35.93;101429.97;5069630;28;20111;-53
2023/08/14 11:04:54;;;;;;;;;;;;;;;29.80;35.50;101426.16;5070179;28;20111;-43
2023/08/14 11:07:24;;;;;;;6.45;1.50;;;;;;;29.37;36.70;101432.25;5071797;28;19923;-45
2023/08/14 11:09:49;;;;;;;4.07;1.52;;;;;;;29.66;36.31;101419.84;5070826;28;20032;-48
2023/08/14 11:12:15;;;;;;;4.03;1.60;;;;;;;29.64;36.32;101432.53;5070390;28;20127;-49
2023/08/14 11:14:41;;;;;;;4.63;1.75;;;;;;;28.80;37.39;101423.72;5070716;28;20056;-44
2023/08/14 11:17:08;;;;;;;6.72;1.80;;;;;;;29.43;38.36;101429.22;5076175;28;20150;-47
2023/08/14 11:19:35;;;;;;;5.55;1.45;;;;;;;29.61;38.26;101430.00;5074386;28;20145;-44
2023/08/14 11:22:01;;;;;;;4.63;1.60;;;;;;;29.82;36.18;101418.03;5073101;28;20036;-50